Main page
METAR-TAF:

METAR-TAF

Airports :

Bristol Airport

Bristol, England

latitude: 51-23N, longitude: 002-43W, elevation: 189 m

Current weather observation

The report was made 13 minutes ago, at 20:20 UTC
Wind 5 kt from the West
Temperature 15°C
Humidity 72%
Pressure 1030 hPa
Visibility: 9000 m

METAR: EGGD 222020Z AUTO 28005KT 9000 NCD 15/10 Q1030

Time: 21:33 (20:33 UTC)

Forecast

The report was made 3 hours and 30 minutes ago, at 17:03 UTC
Forecast valid from 22 at 18 UTC to 23 at 18 UTC
Wind 8 kt from the West
Visibility 10 km or more
no clouds below 1500 m and no cumulonimbus

TAF: EGGD 221703Z 2218/2318 28008KT CAVOK

Weather observations and forecasts of more than 4000 airports (METAR and TAF reports).

The available stations are represented by yellow and red dots on the map.

Hover mouse over dot to see the name of the station.

Then click to see weather observations and forecasts.

To change the map : click on the green buttons with a black cross to zoom in, on the green button with a dash to zoom out, or on the green arrows for adjacent maps.


METAR-TAF: